createdAt,value
2019-05-28T00:00:18.723Z,89.68
2019-05-28T00:03:25.268Z,91.17
2019-05-28T00:06:32.960Z,91.63
2019-05-28T00:09:39.379Z,90.25
2019-05-28T00:12:45.960Z,90.43
2019-05-28T00:15:53.484Z,88.27
2019-05-28T00:19:02.039Z,88.39
2019-05-28T00:22:08.829Z,88.50
2019-05-28T00:25:17.284Z,88.19
2019-05-28T00:28:23.913Z,87.72
2019-05-28T00:31:30.386Z,88.16
2019-05-28T00:34:37.043Z,88.84
2019-05-28T00:37:43.506Z,89.13
2019-05-28T00:40:50.290Z,90.02
2019-05-28T00:43:56.800Z,90.59
2019-05-28T00:47:03.324Z,89.76
2019-05-28T00:50:10.787Z,89.97
2019-05-28T00:53:17.403Z,91.55
2019-05-28T00:56:25.422Z,91.85
2019-05-28T00:59:36.838Z,91.17
2019-05-28T01:02:43.372Z,90.51
2019-05-28T01:05:50.961Z,92.22
2019-05-28T01:08:57.845Z,90.32
2019-05-28T01:12:04.481Z,90.27
2019-05-28T01:15:11.596Z,91.53
2019-05-28T01:18:18.494Z,92.71
2019-05-28T01:21:25.076Z,92.23
2019-05-28T01:24:31.646Z,92.74
2019-05-28T01:27:40.845Z,92.15
2019-05-28T01:30:56.041Z,91.30
2019-05-28T01:33:55.504Z,90.85
2019-05-28T01:37:02.062Z,92.08
2019-05-28T01:40:10.023Z,92.38
2019-05-28T01:43:16.502Z,91.79
2019-05-28T01:46:23.067Z,91.70
2019-05-28T01:49:29.611Z,91.69
2019-05-28T01:52:38.740Z,94.69
2019-05-28T01:55:45.397Z,96.25
2019-05-28T01:58:51.837Z,96.00
2019-05-28T02:01:58.326Z,95.22
2019-05-28T02:05:06.637Z,97.39
2019-05-28T02:08:13.132Z,99.19
2019-05-28T02:11:19.553Z,98.51
2019-05-28T02:14:26.019Z,98.60
2019-05-28T02:17:32.862Z,97.96
2019-05-28T02:20:40.553Z,98.11
2019-05-28T02:23:47.094Z,98.84
2019-05-28T02:26:53.810Z,99.66
2019-05-28T02:30:00.251Z,99.70
2019-05-28T02:33:06.803Z,99.35
2019-05-28T02:36:15.226Z,99.37
2019-05-28T02:39:21.810Z,100.00
2019-05-28T02:42:28.389Z,100.00
2019-05-28T02:45:36.508Z,100.00
2019-05-28T02:48:43.148Z,99.80
2019-05-28T02:51:50.221Z,99.95
2019-05-28T02:54:57.193Z,100.00
2019-05-28T02:58:05.176Z,100.00
2019-05-28T03:01:11.696Z,100.00
2019-05-28T03:04:20.756Z,100.00
2019-05-28T03:07:29.758Z,100.00
2019-05-28T03:11:01.710Z,100.00
2019-05-28T03:13:47.217Z,100.00
2019-05-28T03:16:57.202Z,100.00
2019-05-28T03:20:04.834Z,100.00
2019-05-28T03:23:13.269Z,100.00
2019-05-28T03:26:19.806Z,100.00
2019-05-28T03:29:26.456Z,100.00
2019-05-28T03:32:34.673Z,100.00
2019-05-28T03:35:43.589Z,100.00
2019-05-28T03:38:52.236Z,100.00
2019-05-28T03:41:58.724Z,100.00
2019-05-28T03:45:05.476Z,100.00
2019-05-28T03:48:11.967Z,100.00
2019-05-28T03:51:18.430Z,100.00
2019-05-28T03:54:24.879Z,100.00
2019-05-28T03:57:31.395Z,100.00
2019-05-28T04:00:37.861Z,100.00
2019-05-28T04:03:44.313Z,100.00
2019-05-28T04:06:50.816Z,100.00
2019-05-28T04:09:57.487Z,100.00
2019-05-28T04:13:05.302Z,100.00
2019-05-28T04:16:11.771Z,100.00
2019-05-28T04:19:18.379Z,100.00
2019-05-28T04:22:24.832Z,100.00
2019-05-28T04:25:31.455Z,100.00
2019-05-28T04:28:38.351Z,100.00
2019-05-28T04:31:44.795Z,100.00
2019-05-28T04:34:51.470Z,100.00
2019-05-28T04:37:57.911Z,100.00
2019-05-28T04:41:04.697Z,100.00
2019-05-28T04:44:11.267Z,100.00
2019-05-28T04:47:17.910Z,100.00
2019-05-28T04:50:24.601Z,100.00
2019-05-28T04:53:31.144Z,100.00
2019-05-28T04:56:37.796Z,100.00
2019-05-28T04:59:44.236Z,100.00
2019-05-28T05:02:59.676Z,100.00
2019-05-28T05:05:59.147Z,100.00
2019-05-28T05:09:07.871Z,100.00
2019-05-28T05:12:14.630Z,100.00
2019-05-28T05:15:21.117Z,100.00
2019-05-28T05:18:27.655Z,100.00
2019-05-28T05:21:35.691Z,100.00
2019-05-28T05:24:42.620Z,100.00
2019-05-28T05:27:49.564Z,100.00
2019-05-28T05:30:56.057Z,100.00
2019-05-28T05:34:02.486Z,100.00
2019-05-28T05:37:09.335Z,100.00
2019-05-28T05:40:16.215Z,100.00
2019-05-28T05:43:22.821Z,100.00
2019-05-28T05:46:29.285Z,100.00
2019-05-28T05:49:36.211Z,100.00
2019-05-28T05:52:42.716Z,100.00
2019-05-28T05:55:49.187Z,100.00
2019-05-28T05:58:55.729Z,100.00
2019-05-28T06:02:02.315Z,100.00
2019-05-28T06:05:08.930Z,100.00
2019-05-28T06:08:15.471Z,100.00
2019-05-28T06:11:21.950Z,100.00
2019-05-28T06:14:28.403Z,100.00
2019-05-28T06:17:35.298Z,100.00
2019-05-28T06:20:41.854Z,100.00
2019-05-28T06:23:48.359Z,100.00
2019-05-28T06:26:54.814Z,100.00
2019-05-28T06:30:01.622Z,100.00
2019-05-28T06:33:08.183Z,100.00
2019-05-28T06:36:14.731Z,100.00
2019-05-28T06:39:22.129Z,100.00
2019-05-28T06:42:28.661Z,100.00
2019-05-28T06:45:37.694Z,100.00
2019-05-28T06:48:44.196Z,100.00
2019-05-28T06:51:50.790Z,100.00
2019-05-28T06:54:57.343Z,100.00
2019-05-28T06:58:03.979Z,100.00
2019-05-28T07:01:10.685Z,100.00
2019-05-28T07:04:31.820Z,100.00
2019-05-28T07:07:26.517Z,100.00
2019-05-28T07:10:33.449Z,100.00
2019-05-28T07:13:39.898Z,100.00
2019-05-28T07:16:53.174Z,100.00
2019-05-28T07:19:54.878Z,100.00
2019-05-28T07:23:01.360Z,100.00
2019-05-28T07:26:07.896Z,99.86
2019-05-28T07:29:14.377Z,100.00
2019-05-28T07:32:22.070Z,99.87
2019-05-28T07:35:44.681Z,99.94
2019-05-28T07:38:39.548Z,99.08
2019-05-28T07:41:45.991Z,98.66
2019-05-28T07:44:52.450Z,98.83
2019-05-28T07:47:59.111Z,100.00
2019-05-28T07:51:06.090Z,99.69
2019-05-28T07:54:12.589Z,100.00
2019-05-28T07:57:19.194Z,98.48
2019-05-28T08:00:38.849Z,97.09
2019-05-28T08:03:45.370Z,98.05
2019-05-28T08:06:55.082Z,98.81
2019-05-28T08:10:00.273Z,98.50
2019-05-28T08:13:07.062Z,99.18
2019-05-28T08:16:18.345Z,96.05
2019-05-28T08:19:22.090Z,94.18
2019-05-28T08:22:41.659Z,97.42
2019-05-28T08:25:47.037Z,99.41
2019-05-28T08:28:45.434Z,98.68
2019-05-28T08:31:51.978Z,97.76
2019-05-28T08:35:05.589Z,98.79
2019-05-28T08:38:07.011Z,99.11
2019-05-28T08:41:13.713Z,98.57
2019-05-28T08:44:20.135Z,97.25
2019-05-28T08:47:26.774Z,98.48
2019-05-28T08:50:35.175Z,98.62
2019-05-28T08:53:41.649Z,98.76
2019-05-28T08:56:48.341Z,98.47
2019-05-28T08:59:54.771Z,99.74
2019-05-28T09:03:05.050Z,95.79
2019-05-28T09:06:09.605Z,95.25
2019-05-28T09:09:16.169Z,98.82
2019-05-28T09:12:22.611Z,93.78
2019-05-28T09:15:29.250Z,94.42
2019-05-28T09:18:36.901Z,96.72
2019-05-28T09:21:43.402Z,91.98
2019-05-28T09:24:49.905Z,92.24
2019-05-28T09:27:56.576Z,94.57
2019-05-28T09:31:03.161Z,93.85
2019-05-28T09:34:09.673Z,96.34
2019-05-28T09:37:16.360Z,94.51
2019-05-28T09:40:23.208Z,96.54
2019-05-28T09:43:29.756Z,95.21
2019-05-28T09:46:36.608Z,94.80
2019-05-28T09:49:43.187Z,97.11
2019-05-28T09:52:55.059Z,95.38
2019-05-28T09:55:58.065Z,91.30
2019-05-28T09:59:05.588Z,90.53
2019-05-28T10:02:12.292Z,92.42
2019-05-28T10:05:21.255Z,89.79
2019-05-28T10:08:27.912Z,91.33
2019-05-28T10:11:34.969Z,91.54
2019-05-28T10:14:44.268Z,89.69
2019-05-28T10:17:49.875Z,88.31
2019-05-28T10:20:56.579Z,88.61
2019-05-28T10:24:03.038Z,89.87
2019-05-28T10:27:09.617Z,87.36
2019-05-28T10:30:17.019Z,87.51
2019-05-28T10:33:23.597Z,87.00
2019-05-28T10:36:36.029Z,87.89
2019-05-28T10:39:39.419Z,85.14
2019-05-28T10:42:46.981Z,83.82
2019-05-28T10:45:53.600Z,85.04
2019-05-28T10:49:00.403Z,87.81
2019-05-28T10:52:07.153Z,85.34
2019-05-28T10:55:15.995Z,82.52
2019-05-28T10:58:22.289Z,82.90
2019-05-28T11:01:29.000Z,83.57
2019-05-28T11:04:38.164Z,84.02
2019-05-28T11:07:44.685Z,83.91
2019-05-28T11:10:51.355Z,83.05
2019-05-28T11:13:57.898Z,83.95
2019-05-28T11:17:05.579Z,80.19
2019-05-28T11:20:13.325Z,79.84
2019-05-28T11:23:20.518Z,77.88
2019-05-28T11:26:27.064Z,80.24
2019-05-28T11:29:34.110Z,80.07
2019-05-28T11:32:40.872Z,79.91
2019-05-28T11:35:47.574Z,78.24
2019-05-28T11:38:54.018Z,77.83
2019-05-28T11:42:00.881Z,79.08
2019-05-28T11:45:09.946Z,77.62
2019-05-28T11:48:16.706Z,76.34
2019-05-28T11:51:23.202Z,72.59
2019-05-28T11:54:29.689Z,75.15
2019-05-28T11:57:36.493Z,75.96
2019-05-28T12:00:43.168Z,73.73
2019-05-28T12:03:49.641Z,74.08
2019-05-28T12:06:56.143Z,73.00
2019-05-28T12:10:02.933Z,73.44
2019-05-28T12:13:11.037Z,73.47
2019-05-28T12:16:17.646Z,73.84
2019-05-28T12:19:24.079Z,75.01
2019-05-28T12:22:30.525Z,75.16
2019-05-28T12:25:37.136Z,75.88
2019-05-28T12:28:43.548Z,75.99
2019-05-28T12:31:50.087Z,75.80
2019-05-28T12:34:56.563Z,74.80
2019-05-28T12:38:03.022Z,73.87
2019-05-28T12:41:09.521Z,72.67
2019-05-28T12:44:17.522Z,71.67
2019-05-28T12:47:24.300Z,74.61
2019-05-28T12:50:30.844Z,71.26
2019-05-28T12:53:50.385Z,71.64
2019-05-28T12:56:46.972Z,69.90
2019-05-28T12:59:53.419Z,71.51
2019-05-28T13:03:00.209Z,70.76
2019-05-28T13:06:06.902Z,70.07
2019-05-28T13:09:13.354Z,71.57
2019-05-28T13:12:19.771Z,70.01
2019-05-28T13:15:27.223Z,68.75
2019-05-28T13:18:34.274Z,70.43
2019-05-28T13:21:40.751Z,70.60
2019-05-28T13:24:47.321Z,70.98
2019-05-28T13:27:53.739Z,67.67
2019-05-28T13:31:00.313Z,71.69
2019-05-28T13:34:07.060Z,68.28
2019-05-28T13:37:13.586Z,72.05
2019-05-28T13:40:21.737Z,70.41
2019-05-28T13:43:28.110Z,70.50
2019-05-28T13:46:37.455Z,70.51
2019-05-28T13:49:44.930Z,71.05
2019-05-28T13:52:51.425Z,69.92
2019-05-28T13:55:57.886Z,69.52
2019-05-28T13:59:04.511Z,70.73
2019-05-28T14:02:10.996Z,71.48
2019-05-28T14:05:18.491Z,71.26
2019-05-28T14:08:25.035Z,69.58
2019-05-28T14:11:31.469Z,74.00
2019-05-28T14:14:40.565Z,77.65
2019-05-28T14:17:47.177Z,83.70
2019-05-28T14:20:53.634Z,84.96
2019-05-28T14:24:01.045Z,86.31
2019-05-28T14:27:07.517Z,84.59
2019-05-28T14:30:14.816Z,84.28
2019-05-28T14:33:21.542Z,85.31
2019-05-28T14:36:28.947Z,86.45
2019-05-28T14:39:41.343Z,86.39
2019-05-28T14:42:46.852Z,87.30
2019-05-28T14:45:53.443Z,86.30
2019-05-28T14:49:02.307Z,87.85
2019-05-28T14:52:08.719Z,89.86
2019-05-28T14:55:15.460Z,85.18
2019-05-28T14:58:21.875Z,83.79
2019-05-28T15:01:28.447Z,85.22
2019-05-28T15:04:35.216Z,92.05
2019-05-28T15:07:41.789Z,93.93
2019-05-28T15:10:48.294Z,91.38
2019-05-28T15:13:54.864Z,86.89
2019-05-28T15:17:01.324Z,89.63
2019-05-28T15:20:08.877Z,88.62
2019-05-28T15:23:15.419Z,87.30
2019-05-28T15:26:22.046Z,86.32
2019-05-28T15:29:28.629Z,91.40
2019-05-28T15:32:37.983Z,91.88
2019-05-28T15:35:46.954Z,92.08
2019-05-28T15:38:53.452Z,91.67
2019-05-28T15:41:59.949Z,90.50
2019-05-28T15:45:07.700Z,87.19
2019-05-28T15:48:14.160Z,88.26
2019-05-28T15:51:21.937Z,86.43
2019-05-28T15:54:30.020Z,84.49
2019-05-28T15:57:36.679Z,86.89
2019-05-28T16:00:43.360Z,85.45
2019-05-28T16:03:50.094Z,83.97
2019-05-28T16:06:56.777Z,82.40
2019-05-28T16:10:03.391Z,82.42
2019-05-28T16:13:09.841Z,84.32
2019-05-28T16:16:16.360Z,85.60
2019-05-28T16:19:22.823Z,85.50
2019-05-28T16:22:29.518Z,84.64
2019-05-28T16:25:41.575Z,86.67
2019-05-28T16:28:47.500Z,84.10
2019-05-28T16:31:54.008Z,85.16
2019-05-28T16:35:00.507Z,81.15
2019-05-28T16:38:06.986Z,83.85
2019-05-28T16:41:13.586Z,81.75
2019-05-28T16:44:20.001Z,80.64
2019-05-28T16:47:26.488Z,85.05
2019-05-28T16:50:34.724Z,83.07
2019-05-28T16:53:41.313Z,81.11
2019-05-28T16:56:47.765Z,83.86
2019-05-28T16:59:54.194Z,84.19
2019-05-28T17:03:00.711Z,82.11
2019-05-28T17:06:07.299Z,86.08
2019-05-28T17:09:13.734Z,86.11
2019-05-28T17:12:20.165Z,86.27
2019-05-28T17:15:26.594Z,87.19
2019-05-28T17:18:33.172Z,85.85
2019-05-28T17:21:39.592Z,83.95
2019-05-28T17:24:46.101Z,84.37
2019-05-28T17:27:52.583Z,84.19
2019-05-28T17:30:59.058Z,85.38
2019-05-28T17:34:05.813Z,86.49
2019-05-28T17:37:12.583Z,84.79
2019-05-28T17:40:23.045Z,85.04
2019-05-28T17:43:28.377Z,85.37
2019-05-28T17:46:37.665Z,88.46
2019-05-28T17:49:44.475Z,89.60
2019-05-28T17:52:51.874Z,92.24
2019-05-28T17:55:59.543Z,89.76
2019-05-28T17:59:06.186Z,87.25
2019-05-28T18:02:12.689Z,86.83
2019-05-28T18:05:19.311Z,87.12
2019-05-28T18:08:29.216Z,88.15
2019-05-28T18:11:37.028Z,87.56
2019-05-28T18:14:43.456Z,87.01
2019-05-28T18:17:50.016Z,86.41
2019-05-28T18:20:56.599Z,87.97
2019-05-28T18:24:03.173Z,88.69
2019-05-28T18:27:09.658Z,88.40
2019-05-28T18:30:16.938Z,89.18
2019-05-28T18:38:03.174Z,91.07
2019-05-28T18:41:20.644Z,91.35
2019-05-28T18:44:13.211Z,92.43
2019-05-28T18:47:19.724Z,91.53
2019-05-28T18:50:26.206Z,89.74
2019-05-28T18:53:35.750Z,90.48
2019-05-28T18:56:42.487Z,88.99
2019-05-28T18:59:48.919Z,91.18
2019-05-28T19:02:55.361Z,95.52
2019-05-28T19:06:01.792Z,91.87
2019-05-28T19:09:11.471Z,90.20
2019-05-28T19:12:18.365Z,92.33
2019-05-28T19:15:24.883Z,93.72
2019-05-28T19:18:31.332Z,92.51
2019-05-28T19:21:37.815Z,91.78
2019-05-28T19:24:44.239Z,91.63
2019-05-28T19:27:50.669Z,90.29
2019-05-28T19:30:57.406Z,95.05
2019-05-28T19:34:04.041Z,95.19
2019-05-28T19:37:11.209Z,94.82
2019-05-28T19:40:26.328Z,97.04
2019-05-28T19:43:34.139Z,97.36
2019-05-28T19:46:40.675Z,97.09
2019-05-28T19:49:47.074Z,96.71
2019-05-28T19:52:56.817Z,99.39
2019-05-28T19:56:02.803Z,96.92
2019-05-28T19:59:09.444Z,94.93
2019-05-28T20:02:15.945Z,93.74
2019-05-28T20:05:22.841Z,93.76
2019-05-28T20:08:29.320Z,92.54
2019-05-28T20:11:38.587Z,94.92
2019-05-28T20:14:45.037Z,94.95
2019-05-28T20:17:52.473Z,96.66
2019-05-28T20:20:59.055Z,97.05
2019-05-28T20:24:06.054Z,96.83
2019-05-28T20:27:12.638Z,95.91
2019-05-28T20:30:22.294Z,96.00
2019-05-28T20:33:28.746Z,96.73
2019-05-28T20:36:35.617Z,98.44
2019-05-28T20:39:42.166Z,97.74
2019-05-28T20:42:48.746Z,98.70
2019-05-28T20:45:55.275Z,98.58
2019-05-28T20:49:02.624Z,100.00
2019-05-28T20:52:09.375Z,100.00
2019-05-28T20:55:18.299Z,99.61
2019-05-28T20:58:39.298Z,99.72
2019-05-28T21:01:36.789Z,99.37
2019-05-28T21:04:43.368Z,98.34
2019-05-28T21:07:50.358Z,98.17
2019-05-28T21:10:56.915Z,97.90
2019-05-28T21:14:03.350Z,96.94
2019-05-28T21:17:09.975Z,96.02
2019-05-28T21:20:17.207Z,96.51
2019-05-28T21:23:23.649Z,98.00
2019-05-28T21:26:30.087Z,96.79
2019-05-28T21:29:36.632Z,96.25
2019-05-28T21:32:43.271Z,97.54
2019-05-28T21:35:50.779Z,97.10
2019-05-28T21:38:57.773Z,96.46
2019-05-28T21:42:04.225Z,96.11
2019-05-28T21:45:12.720Z,95.36
2019-05-28T21:48:19.293Z,96.23
2019-05-28T21:51:26.936Z,96.55
2019-05-28T21:54:35.109Z,95.02
2019-05-28T21:57:44.660Z,93.86
2019-05-28T22:01:04.104Z,94.28
2019-05-28T22:04:10.977Z,96.59
2019-05-28T22:07:17.543Z,93.20
2019-05-28T22:10:24.179Z,92.52
2019-05-28T22:13:30.727Z,94.21
2019-05-28T22:16:39.136Z,95.56
2019-05-28T22:19:45.665Z,94.08
2019-05-28T22:22:52.105Z,95.78
2019-05-28T22:25:58.577Z,96.18
2019-05-28T22:29:05.180Z,98.54
2019-05-28T22:32:11.699Z,100.00
2019-05-28T22:35:20.107Z,100.00
2019-05-28T22:38:26.585Z,100.00
2019-05-28T22:41:33.501Z,96.66
2019-05-28T22:44:41.079Z,99.49
2019-05-28T22:47:47.570Z,98.81
2019-05-28T22:50:53.987Z,98.27
2019-05-28T22:54:01.879Z,98.32
2019-05-28T22:57:08.585Z,100.00
2019-05-28T23:00:15.382Z,99.63
2019-05-28T23:03:21.893Z,95.41
2019-05-28T23:06:29.488Z,94.60
2019-05-28T23:09:37.056Z,98.98
2019-05-28T23:12:43.475Z,100.00
2019-05-28T23:15:49.860Z,100.00
2019-05-28T23:18:56.309Z,99.81
2019-05-28T23:22:03.022Z,97.84
2019-05-28T23:25:11.682Z,100.00
2019-05-28T23:28:18.439Z,100.00
2019-05-28T23:31:24.877Z,100.00
2019-05-28T23:34:31.355Z,100.00
2019-05-28T23:37:39.275Z,100.00
2019-05-28T23:40:45.701Z,100.00
2019-05-28T23:44:01.471Z,99.85
2019-05-28T23:47:00.791Z,100.00
2019-05-28T23:50:08.482Z,99.25
2019-05-28T23:53:16.304Z,100.00
2019-05-28T23:56:22.982Z,100.00
2019-05-28T23:59:29.506Z,100.00
